Mount Nebo, WV

4:57 PM EST on January 23, 2017 (GMT -0500)
Summersville | | Change Station

Elev 1932 ft 38.30 °N, 80.84 °W | Updated 29 seconds ago

Overcast
Overcast
40.6 °F
Feels Like 39 °F
N
3.2
Wind Variable Wind from NNE

Today
High -- | Low -- °F
--% Chance of Precip.
Yesterday
High -- | Low -- °F
Precip. -- in
Pressure 29.42 in
Visibility 1.8 miles
Clouds Few 400 ft
Scattered Clouds 1000 ft
Overcast 1600 ft
Windchill 39 °F
Dew Point 38 °F
Humidity 89%
Rainfall 1.71 in
Snow Depth Not available.
7:34 AM 5:36 PM
Waning Crescent, 16% visible
METAR KBKW 232151Z AUTO 00000KT 1 3/4SM -RA BR FEW004 SCT010 OVC016 06/04 A2941 RMK AO2 RAB17 CIG 010 RWY19 SLP960 P0001 T00560044
Pressure 29.42 in
Visibility 1.8 miles
Clouds Few 400 ft
Scattered Clouds 1000 ft
Overcast 1600 ft
Windchill 39 °F
Dew Point 38 °F
Humidity 89%
Rainfall 1.71 in
Snow Depth Not available.
7:34 AM 5:36 PM
Waning Crescent, 16% visible
METAR KBKW 232151Z AUTO 00000KT 1 3/4SM -RA BR FEW004 SCT010 OVC016 06/04 A2941 RMK AO2 RAB17 CIG 010 RWY19 SLP960 P0001 T00560044

Get Your Daily Forecast Email!

Thanks for signing up!

Be on the lookout for a verification email in your inbox.

You'll start receiving the daily forecast at 8 AM.

×

10-Day Weather Forecast

Almanac

Astronomy

Jan. 23, 2017 Rise Set
Actual Time
Civil Twilight
Nautical Twilight
Astronomical Twilight
Moon
Length of Visible Light
Length of Day
Tomorrow will be .
, % of the Moon is Illuminated

Today's Extremes

State Highs State Lows

Community

WunderPhotos

Upload Photos

1,962,540 photos uploaded!

WunderBlog® & News

Nearby

Air Quality

  Air Quality AQ Index Pollutant
Not available.

Snow Depth

Station Depth Elevation

Earthquake Activity

City Distance Mag. Time & Date
Minimum magnitude displayed is 2.5.

Coastal Water Temperatures

Place Temperature

Stations

Nearby Weather Stations

Station Location Temp. Windchill Dew Point Humidity Wind Precip. Elev Updated Type
                   

Watches & Warnings

There are currently no watches in effect.